sensor_id;sensor_type;location;lat;lon;timestamp;pressure;altitude;pressure_sealevel;temperature;humidity
29433;BME280;16405;53.964;13.448;2022-12-07T00:01:33;100716.44;;;1.72;100.00
29433;BME280;16405;53.964;13.448;2022-12-07T00:04:11;100720.72;;;1.74;100.00
29433;BME280;16405;53.964;13.448;2022-12-07T00:06:43;100715.53;;;1.76;100.00
29433;BME280;16405;53.964;13.448;2022-12-07T00:09:13;100710.34;;;1.74;100.00
29433;BME280;16405;53.964;13.448;2022-12-07T00:11:42;100713.81;;;1.75;100.00
29433;BME280;16405;53.964;13.448;2022-12-07T00:14:14;100712.94;;;1.77;100.00
29433;BME280;16405;53.964;13.448;2022-12-07T00:16:40;100712.06;;;1.77;100.00
29433;BME280;16405;53.964;13.448;2022-12-07T00:19:06;100702.53;;;1.77;100.00
29433;BME280;16405;53.964;13.448;2022-12-07T00:21:40;100705.09;;;1.79;100.00
29433;BME280;16405;53.964;13.448;2022-12-07T00:24:07;100701.66;;;1.77;100.00
29433;BME280;16405;53.964;13.448;2022-12-07T00:26:45;100693.09;;;1.70;100.00
29433;BME280;16405;53.964;13.448;2022-12-07T00:29:21;100687.09;;;1.62;100.00
29433;BME280;16405;53.964;13.448;2022-12-07T00:31:49;100683.66;;;1.63;100.00
29433;BME280;16405;53.964;13.448;2022-12-07T00:34:19;100683.66;;;1.63;100.00
29433;BME280;16405;53.964;13.448;2022-12-07T00:36:51;100679.38;;;1.59;100.00
29433;BME280;16405;53.964;13.448;2022-12-07T00:39:17;100676.81;;;1.56;100.00
29433;BME280;16405;53.964;13.448;2022-12-07T00:41:43;100678.56;;;1.54;100.00
29433;BME280;16405;53.964;13.448;2022-12-07T00:44:09;100671.63;;;1.53;100.00
29433;BME280;16405;53.964;13.448;2022-12-07T00:49:11;100678.63;;;1.44;100.00
29433;BME280;16405;53.964;13.448;2022-12-07T00:51:38;100673.44;;;1.44;100.00
29433;BME280;16405;53.964;13.448;2022-12-07T00:54:04;100671.72;;;1.45;100.00
29433;BME280;16405;53.964;13.448;2022-12-07T00:56:37;100669.16;;;1.42;100.00
29433;BME280;16405;53.964;13.448;2022-12-07T00:59:04;100661.38;;;1.42;100.00
29433;BME280;16405;53.964;13.448;2022-12-07T01:01:33;100663.06;;;1.44;100.00
29433;BME280;16405;53.964;13.448;2022-12-07T01:04:03;100654.41;;;1.46;100.00
29433;BME280;16405;53.964;13.448;2022-12-07T01:06:30;100650.97;;;1.43;100.00
29433;BME280;16405;53.964;13.448;2022-12-07T01:08:56;100648.41;;;1.42;100.00
29433;BME280;16405;53.964;13.448;2022-12-07T01:11:25;100647.53;;;1.41;100.00
29433;BME280;16405;53.964;13.448;2022-12-07T01:13:56;100641.50;;;1.39;100.00
29433;BME280;16405;53.964;13.448;2022-12-07T01:16:25;100638.97;;;1.35;100.00
29433;BME280;16405;53.964;13.448;2022-12-07T01:18:56;100638.91;;;1.38;100.00
29433;BME280;16405;53.964;13.448;2022-12-07T01:21:26;100635.53;;;1.34;100.00
29433;BME280;16405;53.964;13.448;2022-12-07T01:23:52;100634.69;;;1.31;100.00
29433;BME280;16405;53.964;13.448;2022-12-07T01:26:23;100634.72;;;1.25;100.00
29433;BME280;16405;53.964;13.448;2022-12-07T01:28:50;100632.19;;;1.20;100.00
29433;BME280;16405;53.964;13.448;2022-12-07T01:31:22;100627.06;;;1.14;100.00
29433;BME280;16405;53.964;13.448;2022-12-07T01:33:55;100634.88;;;1.11;100.00
29433;BME280;16405;53.964;13.448;2022-12-07T01:36:27;100632.28;;;1.09;100.00
29433;BME280;16405;53.964;13.448;2022-12-07T01:39:00;100621.91;;;1.09;100.00
29433;BME280;16405;53.964;13.448;2022-12-07T01:41:32;100619.31;;;1.11;100.00
29433;BME280;16405;53.964;13.448;2022-12-07T01:44:26;100610.66;;;1.12;100.00
29433;BME280;16405;53.964;13.448;2022-12-07T01:46:56;100607.19;;;1.13;100.00
29433;BME280;16405;53.964;13.448;2022-12-07T01:49:42;100604.63;;;1.10;100.00
29433;BME280;16405;53.964;13.448;2022-12-07T01:52:25;100598.59;;;1.08;100.00
29433;BME280;16405;53.964;13.448;2022-12-07T01:55:06;100597.72;;;1.06;100.00
29433;BME280;16405;53.964;13.448;2022-12-07T01:57:36;100605.56;;;1.04;100.00
29433;BME280;16405;53.964;13.448;2022-12-07T02:00:05;100596.03;;;1.05;100.00
29433;BME280;16405;53.964;13.448;2022-12-07T02:02:41;100588.25;;;1.03;100.00
29433;BME280;16405;53.964;13.448;2022-12-07T02:05:09;100585.72;;;0.98;100.00
29433;BME280;16405;53.964;13.448;2022-12-07T02:07:36;100584.88;;;0.98;100.00
29433;BME280;16405;53.964;13.448;2022-12-07T02:10:20;100587.50;;;0.90;100.00
29433;BME280;16405;53.964;13.448;2022-12-07T02:12:50;100577.19;;;0.84;100.00
29433;BME280;16405;53.964;13.448;2022-12-07T02:15:19;100578.09;;;0.81;100.00
29433;BME280;16405;53.964;13.448;2022-12-07T02:29:27;100570.50;;;0.60;100.00
29433;BME280;16405;53.964;13.448;2022-12-07T02:34:58;100561.91;;;0.56;100.00
29433;BME280;16405;53.964;13.448;2022-12-07T02:38:35;100559.31;;;0.55;100.00
29433;BME280;16405;53.964;13.448;2022-12-07T02:40:55;100551.56;;;0.53;100.00
29433;BME280;16405;53.964;13.448;2022-12-07T02:43:39;100549.81;;;0.54;100.00
29433;BME280;16405;53.964;13.448;2022-12-07T02:46:25;100543.78;;;0.53;100.00
29433;BME280;16405;53.964;13.448;2022-12-07T02:48:53;100548.97;;;0.55;100.00
29433;BME280;16405;53.964;13.448;2022-12-07T02:51:21;100550.66;;;0.56;100.00
29433;BME280;16405;53.964;13.448;2022-12-07T02:53:55;100549.81;;;0.58;100.00
29433;BME280;16405;53.964;13.448;2022-12-07T03:11:03;100535.19;;;0.50;100.00
29433;BME280;16405;53.964;13.448;2022-12-07T03:16:35;100525.72;;;0.44;100.00
29433;BME280;16405;53.964;13.448;2022-12-07T03:19:15;100532.63;;;0.45;100.00
29433;BME280;16405;53.964;13.448;2022-12-07T03:21:56;100517.06;;;0.45;100.00
29433;BME280;16405;53.964;13.448;2022-12-07T03:24:29;100507.59;;;0.46;100.00
29433;BME280;16405;53.964;13.448;2022-12-07T03:30:17;100499.84;;;0.41;100.00
29433;BME280;16405;53.964;13.448;2022-12-07T03:33:12;100509.34;;;0.42;100.00
29433;BME280;16405;53.964;13.448;2022-12-07T03:38:40;100500.72;;;0.42;100.00
29433;BME280;16405;53.964;13.448;2022-12-07T03:41:26;100493.81;;;0.40;100.00
29433;BME280;16405;53.964;13.448;2022-12-07T03:43:54;100499.84;;;0.41;100.00
29433;BME280;16405;53.964;13.448;2022-12-07T03:52:03;100484.31;;;0.39;100.00
29433;BME280;16405;53.964;13.448;2022-12-07T03:55:14;100480.88;;;0.39;100.00
29433;BME280;16405;53.964;13.448;2022-12-07T03:57:43;100471.38;;;0.39;100.00
29433;BME280;16405;53.964;13.448;2022-12-07T04:00:14;100470.53;;;0.39;100.00
29433;BME280;16405;53.964;13.448;2022-12-07T04:02:43;100469.63;;;0.42;100.00
29433;BME280;16405;53.964;13.448;2022-12-07T04:05:11;100472.19;;;0.43;100.00
29433;BME280;16405;53.964;13.448;2022-12-07T04:07:37;100470.44;;;0.45;100.00
29433;BME280;16405;53.964;13.448;2022-12-07T04:10:04;100460.97;;;0.46;100.00
29433;BME280;16405;53.964;13.448;2022-12-07T04:12:33;100460.97;;;0.46;100.00
29433;BME280;16405;53.964;13.448;2022-12-07T04:14:58;100459.22;;;0.45;100.00
29433;BME280;16405;53.964;13.448;2022-12-07T04:17:24;100455.78;;;0.46;100.00
29433;BME280;16405;53.964;13.448;2022-12-07T04:19:50;100465.25;;;0.48;100.00
29433;BME280;16405;53.964;13.448;2022-12-07T04:22:16;100458.31;;;0.50;100.00
29433;BME280;16405;53.964;13.448;2022-12-07T04:24:42;100454.00;;;0.51;100.00
29433;BME280;16405;53.964;13.448;2022-12-07T04:27:07;100450.50;;;0.52;100.00
29433;BME280;16405;53.964;13.448;2022-12-07T04:29:41;100451.34;;;0.54;100.00
29433;BME280;16405;53.964;13.448;2022-12-07T04:32:06;100447.03;;;0.56;100.00
29433;BME280;16405;53.964;13.448;2022-12-07T04:34:32;100453.03;;;0.59;100.00
29433;BME280;16405;53.964;13.448;2022-12-07T04:36:58;100436.59;;;0.62;100.00
29433;BME280;16405;53.964;13.448;2022-12-07T04:39:30;100438.34;;;0.63;100.00
29433;BME280;16405;53.964;13.448;2022-12-07T04:41:58;100435.75;;;0.63;100.00
29433;BME280;16405;53.964;13.448;2022-12-07T04:44:26;100432.28;;;0.63;100.00
29433;BME280;16405;53.964;13.448;2022-12-07T04:46:57;100423.66;;;0.62;100.00
29433;BME280;16405;53.964;13.448;2022-12-07T04:49:24;100426.22;;;0.64;100.00
29433;BME280;16405;53.964;13.448;2022-12-07T04:51:51;100428.81;;;0.65;100.00
29433;BME280;16405;53.964;13.448;2022-12-07T04:54:17;100418.47;;;0.62;100.00
29433;BME280;16405;53.964;13.448;2022-12-07T04:56:43;100421.91;;;0.63;100.00
29433;BME280;16405;53.964;13.448;2022-12-07T04:59:15;100419.34;;;0.61;100.00
29433;BME280;16405;53.964;13.448;2022-12-07T05:01:41;100415.06;;;0.58;100.00
29433;BME280;16405;53.964;13.448;2022-12-07T05:04:08;100417.66;;;0.58;100.00
29433;BME280;16405;53.964;13.448;2022-12-07T05:06:34;100406.47;;;0.52;100.00
29433;BME280;16405;53.964;13.448;2022-12-07T05:09:09;100399.59;;;0.49;100.00
29433;BME280;16405;53.964;13.448;2022-12-07T05:11:35;100394.47;;;0.46;100.00
29433;BME280;16405;53.964;13.448;2022-12-07T05:14:11;100383.25;;;0.41;100.00
29433;BME280;16405;53.964;13.448;2022-12-07T05:16:39;100380.78;;;0.35;100.00
29433;BME280;16405;53.964;13.448;2022-12-07T05:19:06;100374.69;;;0.36;100.00
29433;BME280;16405;53.964;13.448;2022-12-07T05:21:32;100365.25;;;0.32;100.00
29433;BME280;16405;53.964;13.448;2022-12-07T05:24:00;100366.13;;;0.29;100.00
29433;BME280;16405;53.964;13.448;2022-12-07T05:26:27;100365.28;;;0.30;100.00
29433;BME280;16405;53.964;13.448;2022-12-07T05:28:54;100370.34;;;0.39;100.00
29433;BME280;16405;53.964;13.448;2022-12-07T05:31:22;100372.09;;;0.39;100.00
29433;BME280;16405;53.964;13.448;2022-12-07T05:33:49;100378.09;;;0.43;100.00
29433;BME280;16405;53.964;13.448;2022-12-07T05:36:15;100374.59;;;0.45;100.00
29433;BME280;16405;53.964;13.448;2022-12-07T05:38:41;100374.59;;;0.47;100.00
29433;BME280;16405;53.964;13.448;2022-12-07T05:41:08;100375.44;;;0.47;100.00
29433;BME280;16405;53.964;13.448;2022-12-07T05:44:00;100377.19;;;0.45;100.00
29433;BME280;16405;53.964;13.448;2022-12-07T05:46:26;100379.75;;;0.50;100.00
29433;BME280;16405;53.964;13.448;2022-12-07T05:48:52;100380.59;;;0.50;100.00
29433;BME280;16405;53.964;13.448;2022-12-07T05:51:18;100372.78;;;0.52;100.00
29433;BME280;16405;53.964;13.448;2022-12-07T05:53:44;100370.19;;;0.52;100.00
29433;BME280;16405;53.964;13.448;2022-12-07T05:56:10;100378.84;;;0.52;100.00
29433;BME280;16405;53.964;13.448;2022-12-07T05:58:36;100379.66;;;0.56;100.00
29433;BME280;16405;53.964;13.448;2022-12-07T06:01:21;100371.88;;;0.57;100.00
29433;BME280;16405;53.964;13.448;2022-12-07T06:03:47;100379.63;;;0.59;100.00
29433;BME280;16405;53.964;13.448;2022-12-07T06:06:12;100377.06;;;0.57;100.00
29433;BME280;16405;53.964;13.448;2022-12-07T06:08:41;100365.84;;;0.58;100.00
29433;BME280;16405;53.964;13.448;2022-12-07T06:11:06;100374.44;;;0.60;100.00
29433;BME280;16405;53.964;13.448;2022-12-07T06:13:53;100369.28;;;0.60;100.00
29433;BME280;16405;53.964;13.448;2022-12-07T06:16:19;100374.44;;;0.60;100.00
29433;BME280;16405;53.964;13.448;2022-12-07T06:18:45;100370.13;;;0.59;100.00
29433;BME280;16405;53.964;13.448;2022-12-07T06:21:11;100359.75;;;0.59;100.00
29433;BME280;16405;53.964;13.448;2022-12-07T06:23:36;100365.78;;;0.60;100.00
29433;BME280;16405;53.964;13.448;2022-12-07T06:26:02;100358.91;;;0.59;100.00
29433;BME280;16405;53.964;13.448;2022-12-07T06:28:28;100358.00;;;0.61;100.00
29433;BME280;16405;53.964;13.448;2022-12-07T06:31:02;100360.59;;;0.61;100.00
29433;BME280;16405;53.964;13.448;2022-12-07T06:33:29;100360.63;;;0.60;100.00
29433;BME280;16405;53.964;13.448;2022-12-07T06:35:55;100358.06;;;0.58;100.00
29433;BME280;16405;53.964;13.448;2022-12-07T06:38:25;100350.25;;;0.60;100.00
29433;BME280;16405;53.964;13.448;2022-12-07T06:40:51;100353.72;;;0.60;100.00
29433;BME280;16405;53.964;13.448;2022-12-07T06:43:17;100348.53;;;0.60;100.00
29433;BME280;16405;53.964;13.448;2022-12-07T06:45:43;100347.66;;;0.61;100.00
29433;BME280;16405;53.964;13.448;2022-12-07T06:48:08;100351.97;;;0.61;100.00
29433;BME280;16405;53.964;13.448;2022-12-07T06:50:34;100345.94;;;0.60;100.00
29433;BME280;16405;53.964;13.448;2022-12-07T06:53:00;100349.41;;;0.59;100.00
29433;BME280;16405;53.964;13.448;2022-12-07T06:55:29;100352.84;;;0.61;100.00
29433;BME280;16405;53.964;13.448;2022-12-07T06:57:55;100351.97;;;0.61;100.00
29433;BME280;16405;53.964;13.448;2022-12-07T07:00:21;100345.94;;;0.60;100.00
29433;BME280;16405;53.964;13.448;2022-12-07T07:02:47;100342.53;;;0.55;100.00
29433;BME280;16405;53.964;13.448;2022-12-07T07:05:13;100348.63;;;0.51;100.00
29433;BME280;16405;53.964;13.448;2022-12-07T07:07:39;100353.88;;;0.45;100.00
29433;BME280;16405;53.964;13.448;2022-12-07T07:10:10;100353.97;;;0.37;100.00
29433;BME280;16405;53.964;13.448;2022-12-07T07:12:36;100353.97;;;0.34;100.00
29433;BME280;16405;53.964;13.448;2022-12-07T07:15:02;100347.31;;;0.13;100.00
29433;BME280;16405;53.964;13.448;2022-12-07T07:17:27;100349.91;;;0.13;100.00
29433;BME280;16405;53.964;13.448;2022-12-07T07:19:53;100351.63;;;0.13;100.00
29433;BME280;16405;53.964;13.448;2022-12-07T07:22:19;100348.16;;;0.15;100.00
29433;BME280;16405;53.964;13.448;2022-12-07T07:24:50;100353.34;;;0.12;100.00
29433;BME280;16405;53.964;13.448;2022-12-07T07:27:16;100346.44;;;0.14;100.00
29433;BME280;16405;53.964;13.448;2022-12-07T07:29:41;100342.97;;;0.15;100.00
29433;BME280;16405;53.964;13.448;2022-12-07T07:32:07;100345.53;;;0.18;100.00
29433;BME280;16405;53.964;13.448;2022-12-07T07:34:33;100344.72;;;0.13;100.00
29433;BME280;16405;53.964;13.448;2022-12-07T07:37:02;100350.75;;;0.15;100.00
29433;BME280;16405;53.964;13.448;2022-12-07T07:39:30;100345.53;;;0.17;100.00
29433;BME280;16405;53.964;13.448;2022-12-07T07:41:56;100342.94;;;0.18;100.00
29433;BME280;16405;53.964;13.448;2022-12-07T07:44:21;100355.84;;;0.22;100.00
29433;BME280;16405;53.964;13.448;2022-12-07T07:46:47;100348.00;;;0.28;100.00
29433;BME280;16405;53.964;13.448;2022-12-07T07:49:13;100348.78;;;0.37;100.00
29433;BME280;16405;53.964;13.448;2022-12-07T07:51:39;100350.47;;;0.40;100.00
29433;BME280;16405;53.964;13.448;2022-12-07T07:54:08;100350.47;;;0.42;100.00
29433;BME280;16405;53.964;13.448;2022-12-07T07:56:36;100352.94;;;0.52;100.00
29433;BME280;16405;53.964;13.448;2022-12-07T07:59:02;100356.38;;;0.53;100.00
29433;BME280;16405;53.964;13.448;2022-12-07T08:01:28;100359.75;;;0.59;100.00
29433;BME280;16405;53.964;13.448;2022-12-07T08:03:53;100355.38;;;0.66;100.00
29433;BME280;16405;53.964;13.448;2022-12-07T08:06:19;100353.63;;;0.68;100.00
29433;BME280;16405;53.964;13.448;2022-12-07T08:08:50;100358.78;;;0.70;100.00
29433;BME280;16405;53.964;13.448;2022-12-07T08:11:16;100351.94;;;0.66;100.00
29433;BME280;16405;53.964;13.448;2022-12-07T08:13:42;100354.50;;;0.66;100.00
29433;BME280;16405;53.964;13.448;2022-12-07T08:16:10;100353.66;;;0.65;100.00
29433;BME280;16405;53.964;13.448;2022-12-07T08:18:40;100347.56;;;0.69;100.00
29433;BME280;16405;53.964;13.448;2022-12-07T08:21:09;100352.75;;;0.69;100.00
29433;BME280;16405;53.964;13.448;2022-12-07T08:23:36;100347.53;;;0.72;100.00
29433;BME280;16405;53.964;13.448;2022-12-07T08:26:13;100355.28;;;0.74;100.00
29433;BME280;16405;53.964;13.448;2022-12-07T08:28:40;100350.19;;;0.68;100.00
29433;BME280;16405;53.964;13.448;2022-12-07T08:31:17;100347.53;;;0.71;100.00
29433;BME280;16405;53.964;13.448;2022-12-07T08:33:46;100352.66;;;0.77;100.00
29433;BME280;16405;53.964;13.448;2022-12-07T08:36:15;100352.66;;;0.77;100.00
29433;BME280;16405;53.964;13.448;2022-12-07T08:38:45;100353.56;;;0.71;100.00
29433;BME280;16405;53.964;13.448;2022-12-07T08:41:11;100342.38;;;0.69;100.00
29433;BME280;16405;53.964;13.448;2022-12-07T08:43:37;100351.75;;;0.79;100.00
29433;BME280;16405;53.964;13.448;2022-12-07T08:46:13;100352.50;;;0.89;100.00
29433;BME280;16405;53.964;13.448;2022-12-07T08:48:52;100358.47;;;0.96;100.00
29433;BME280;16405;53.964;13.448;2022-12-07T08:51:22;100344.53;;;1.01;100.00
29433;BME280;16405;53.964;13.448;2022-12-07T08:53:52;100345.28;;;1.10;100.00
29433;BME280;16405;53.964;13.448;2022-12-07T08:56:25;100359.88;;;1.18;100.00
29433;BME280;16405;53.964;13.448;2022-12-07T08:58:57;100351.94;;;1.29;100.00
29433;BME280;16405;53.964;13.448;2022-12-07T09:01:26;100356.97;;;1.41;100.00
29433;BME280;16405;53.964;13.448;2022-12-07T09:03:57;100370.69;;;1.50;100.00
29433;BME280;16405;53.964;13.448;2022-12-07T09:06:29;100356.69;;;1.60;100.00
29433;BME280;16405;53.964;13.448;2022-12-07T09:09:00;100358.22;;;1.70;100.00
29433;BME280;16405;53.964;13.448;2022-12-07T09:11:34;100366.00;;;1.73;100.00
29433;BME280;16405;53.964;13.448;2022-12-07T09:14:02;100369.19;;;1.88;100.00
29433;BME280;16405;53.964;13.448;2022-12-07T09:16:30;100369.16;;;1.91;100.00
29433;BME280;16405;53.964;13.448;2022-12-07T09:18:59;100360.41;;;1.96;100.00
29433;BME280;16405;53.964;13.448;2022-12-07T09:21:25;100353.25;;;2.09;100.00
29433;BME280;16405;53.964;13.448;2022-12-07T09:23:53;100359.97;;;2.21;100.00
29433;BME280;16405;53.964;13.448;2022-12-07T09:26:30;100365.84;;;2.31;100.00
29433;BME280;16405;53.964;13.448;2022-12-07T09:28:55;100366.66;;;2.36;100.00
29433;BME280;16405;53.964;13.448;2022-12-07T09:31:21;100362.22;;;2.41;100.00
29433;BME280;16405;53.964;13.448;2022-12-07T09:34:06;100366.59;;;2.37;100.00
29433;BME280;16405;53.964;13.448;2022-12-07T09:36:34;100358.22;;;2.23;100.00
29433;BME280;16405;53.964;13.448;2022-12-07T09:39:03;100358.13;;;2.28;100.00
29433;BME280;16405;53.964;13.448;2022-12-07T09:41:31;100354.81;;;2.18;100.00
29433;BME280;16405;53.964;13.448;2022-12-07T09:44:12;100354.09;;;2.11;100.00
29433;BME280;16405;53.964;13.448;2022-12-07T09:46:44;100347.28;;;2.04;100.00
29433;BME280;16405;53.964;13.448;2022-12-07T09:49:33;100348.50;;;1.83;100.00
29433;BME280;16405;53.964;13.448;2022-12-07T09:52:26;100335.59;;;1.78;100.00
29433;BME280;16405;53.964;13.448;2022-12-07T09:54:58;100338.03;;;1.88;100.00
29433;BME280;16405;53.964;13.448;2022-12-07T09:57:33;100341.63;;;2.29;100.00
29433;BME280;16405;53.964;13.448;2022-12-07T10:00:12;100335.03;;;2.57;100.00
29433;BME280;16405;53.964;13.448;2022-12-07T10:02:59;100338.94;;;2.78;100.00
29433;BME280;16405;53.964;13.448;2022-12-07T10:05:57;100326.94;;;2.71;100.00
29433;BME280;16405;53.964;13.448;2022-12-07T10:08:26;100320.69;;;2.81;100.00
29433;BME280;16405;53.964;13.448;2022-12-07T10:10:57;100331.94;;;2.82;100.00
29433;BME280;16405;53.964;13.448;2022-12-07T10:13:52;100333.94;;;2.67;100.00
29433;BME280;16405;53.964;13.448;2022-12-07T10:22:17;100321.25;;;2.52;100.00
29433;BME280;16405;53.964;13.448;2022-12-07T10:24:51;100317.78;;;2.53;100.00
29433;BME280;16405;53.964;13.448;2022-12-07T10:27:56;100318.56;;;2.57;100.00
29433;BME280;16405;53.964;13.448;2022-12-07T10:30:28;100316.84;;;2.57;100.00
29433;BME280;16405;53.964;13.448;2022-12-07T10:32:56;100322.00;;;2.59;100.00
29433;BME280;16405;53.964;13.448;2022-12-07T10:35:36;100321.31;;;2.51;100.00
29433;BME280;16405;53.964;13.448;2022-12-07T10:38:16;100315.19;;;2.53;100.00
29433;BME280;16405;53.964;13.448;2022-12-07T10:40:42;100313.31;;;2.61;100.00
29433;BME280;16405;53.964;13.448;2022-12-07T10:43:18;100317.69;;;2.59;100.00
29433;BME280;16405;53.964;13.448;2022-12-07T11:21:30;100299.72;;;2.47;100.00
29433;BME280;16405;53.964;13.448;2022-12-07T11:24:23;100295.38;;;2.47;100.00
29433;BME280;16405;53.964;13.448;2022-12-07T11:30:20;100291.72;;;2.14;100.00
29433;BME280;16405;53.964;13.448;2022-12-07T11:33:33;100286.75;;;2.00;100.00
29433;BME280;16405;53.964;13.448;2022-12-07T11:36:37;100290.25;;;1.99;100.00
29433;BME280;16405;53.964;13.448;2022-12-07T11:39:26;100285.03;;;2.01;100.00
29433;BME280;16405;53.964;13.448;2022-12-07T11:42:25;100273.56;;;2.11;100.00
29433;BME280;16405;53.964;13.448;2022-12-07T11:45:10;100267.44;;;2.14;100.00
29433;BME280;16405;53.964;13.448;2022-12-07T11:48:03;100265.63;;;2.20;100.00
29433;BME280;16405;53.964;13.448;2022-12-07T11:50:50;100263.81;;;2.22;100.00
29433;BME280;16405;53.964;13.448;2022-12-07T11:56:17;100270.50;;;2.36;100.00
29433;BME280;16405;53.964;13.448;2022-12-07T11:58:51;100265.22;;;2.39;100.00
29433;BME280;16405;53.964;13.448;2022-12-07T12:01:41;100267.84;;;2.39;100.00
29433;BME280;16405;53.964;13.448;2022-12-07T12:06:46;100256.69;;;2.34;100.00
29433;BME280;16405;53.964;13.448;2022-12-07T12:09:48;100251.41;;;2.37;100.00
29433;BME280;16405;53.964;13.448;2022-12-07T12:16:10;100263.22;;;2.53;100.00
29433;BME280;16405;53.964;13.448;2022-12-07T12:22:15;100251.91;;;2.95;100.00
29433;BME280;16405;53.964;13.448;2022-12-07T12:24:44;100244.78;;;3.03;100.00
29433;BME280;16405;53.964;13.448;2022-12-07T12:27:37;100242.94;;;3.08;100.00
29433;BME280;16405;53.964;13.448;2022-12-07T12:30:23;100243.16;;;2.97;100.00
29433;BME280;16405;53.964;13.448;2022-12-07T12:32:50;100244.25;;;2.88;100.00
29433;BME280;16405;53.964;13.448;2022-12-07T12:35:36;100243.66;;;2.76;100.00
29433;BME280;16405;53.964;13.448;2022-12-07T12:38:32;100240.53;;;2.61;100.00
29433;BME280;16405;53.964;13.448;2022-12-07T12:41:02;100239.94;;;2.47;100.00
29433;BME280;16405;53.964;13.448;2022-12-07T12:43:50;100232.38;;;2.36;100.00
29433;BME280;16405;53.964;13.448;2022-12-07T12:51:59;100224.06;;;2.20;100.00
29433;BME280;16405;53.964;13.448;2022-12-07T12:54:32;100224.22;;;2.11;100.00
29433;BME280;16405;53.964;13.448;2022-12-07T13:02:35;100218.50;;;1.94;100.00
29433;BME280;16405;53.964;13.448;2022-12-07T13:28:49;100221.31;;;1.35;100.00
29433;BME280;16405;53.964;13.448;2022-12-07T13:31:45;100221.22;;;1.38;100.00
29433;BME280;16405;53.964;13.448;2022-12-07T13:37:15;100229.75;;;1.46;100.00
29433;BME280;16405;53.964;13.448;2022-12-07T13:39:52;100215.94;;;1.44;100.00
29433;BME280;16405;53.964;13.448;2022-12-07T13:42:26;100220.28;;;1.43;100.00
29433;BME280;16405;53.964;13.448;2022-12-07T13:44:53;100223.88;;;1.36;100.00
29433;BME280;16405;53.964;13.448;2022-12-07T13:47:41;100225.75;;;1.27;100.00
29433;BME280;16405;53.964;13.448;2022-12-07T13:50:28;100216.38;;;1.18;100.00
29433;BME280;16405;53.964;13.448;2022-12-07T13:53:00;100221.72;;;1.10;100.00
29433;BME280;16405;53.964;13.448;2022-12-07T13:55:28;100224.41;;;1.02;100.00
29433;BME280;16405;53.964;13.448;2022-12-07T13:57:55;100220.16;;;0.97;100.00
29433;BME280;16405;53.964;13.448;2022-12-07T14:00:24;100224.50;;;0.95;100.00
29433;BME280;16405;53.964;13.448;2022-12-07T14:03:32;100229.75;;;0.92;100.00
29433;BME280;16405;53.964;13.448;2022-12-07T14:06:21;100234.19;;;0.84;100.00
29433;BME280;16405;53.964;13.448;2022-12-07T14:08:51;100231.81;;;0.70;100.00
29433;BME280;16405;53.964;13.448;2022-12-07T14:11:30;100233.59;;;0.65;100.00
29433;BME280;16405;53.964;13.448;2022-12-07T14:14:00;100236.16;;;0.66;100.00
29433;BME280;16405;53.964;13.448;2022-12-07T14:16:36;100242.97;;;0.75;100.00
29433;BME280;16405;53.964;13.448;2022-12-07T14:19:06;100236.03;;;0.77;100.00
29433;BME280;16405;53.964;13.448;2022-12-07T14:22:15;100236.91;;;0.74;100.00
29433;BME280;16405;53.964;13.448;2022-12-07T14:24:43;100228.25;;;0.77;100.00
29433;BME280;16405;53.964;13.448;2022-12-07T14:27:20;100229.06;;;0.79;100.00
29433;BME280;16405;53.964;13.448;2022-12-07T14:29:46;100225.63;;;0.78;100.00
29433;BME280;16405;53.964;13.448;2022-12-07T14:32:25;100225.72;;;0.74;100.00
29433;BME280;16405;53.964;13.448;2022-12-07T14:35:11;100225.72;;;0.74;100.00
29433;BME280;16405;53.964;13.448;2022-12-07T14:37:39;100223.13;;;0.72;100.00
29433;BME280;16405;53.964;13.448;2022-12-07T14:40:06;100218.78;;;0.73;100.00
29433;BME280;16405;53.964;13.448;2022-12-07T14:42:33;100212.75;;;0.74;100.00
29433;BME280;16405;53.964;13.448;2022-12-07T14:45:20;100212.75;;;0.74;100.00
29433;BME280;16405;53.964;13.448;2022-12-07T14:47:47;100212.78;;;0.71;100.00
29433;BME280;16405;53.964;13.448;2022-12-07T14:50:17;100221.44;;;0.70;100.00
29433;BME280;16405;53.964;13.448;2022-12-07T14:53:00;100217.16;;;0.67;100.00
29433;BME280;16405;53.964;13.448;2022-12-07T14:55:30;100212.91;;;0.63;100.00
29433;BME280;16405;53.964;13.448;2022-12-07T14:57:57;100225.81;;;0.66;100.00
29433;BME280;16405;53.964;13.448;2022-12-07T15:00:26;100209.44;;;0.63;100.00
29433;BME280;16405;53.964;13.448;2022-12-07T15:02:53;100212.00;;;0.64;100.00
29433;BME280;16405;53.964;13.448;2022-12-07T15:05:19;100210.31;;;0.63;100.00
29433;BME280;16405;53.964;13.448;2022-12-07T15:07:49;100212.00;;;0.64;100.00
29433;BME280;16405;53.964;13.448;2022-12-07T15:10:23;100213.75;;;0.64;100.00
29433;BME280;16405;53.964;13.448;2022-12-07T15:12:49;100211.22;;;0.60;100.00
29433;BME280;16405;53.964;13.448;2022-12-07T15:15:15;100205.16;;;0.60;100.00
29433;BME280;16405;53.964;13.448;2022-12-07T15:17:42;100206.84;;;0.63;100.00
29433;BME280;16405;53.964;13.448;2022-12-07T15:20:13;100210.31;;;0.61;100.00
29433;BME280;16405;53.964;13.448;2022-12-07T15:22:42;100209.50;;;0.59;100.00
29433;BME280;16405;53.964;13.448;2022-12-07T15:25:12;100208.63;;;0.59;100.00
29433;BME280;16405;53.964;13.448;2022-12-07T15:27:38;100206.03;;;0.59;100.00
29433;BME280;16405;53.964;13.448;2022-12-07T15:30:04;100207.81;;;0.55;100.00